Time;durP1;ratioP1;P1;durP2;ratioP2;P2;SDS_P1;SDS_P2;PMS_P1;PMS_P2;Temp;Humidity;BMP_temperature;BMP_pressure;BME280_temperature;BME280_humidity;BME280_pressure;Samples;Min_cycle;Max_cycle;Signal;HPM_P1;HPM_P2
2022/05/01 00:01:02;;;;;;;8.35;5.22;;;10.30;99.90;;;;;;4940329;29;20039;-46
2022/05/01 00:03:31;;;;;;;7.53;4.88;;;10.30;99.90;;;;;;4940200;29;20094;-47
2022/05/01 00:06:01;;;;;;;7.07;4.97;;;10.40;99.90;;;;;;4939947;29;20024;-49
2022/05/01 00:08:28;;;;;;;9.18;5.20;;;10.40;99.90;;;;;;4940078;29;20103;-47
2022/05/01 00:10:54;;;;;;;9.15;5.85;;;10.40;99.90;;;;;;4940317;29;20032;-49
2022/05/01 00:13:21;;;;;;;8.90;5.03;;;10.40;99.90;;;;;;4939723;29;20408;-49
2022/05/01 00:15:47;;;;;;;12.68;5.43;;;10.40;99.90;;;;;;4939565;29;20032;-46
2022/05/01 00:18:13;;;;;;;12.07;5.97;;;10.40;99.90;;;;;;4939493;29;20090;-46
2022/05/01 00:20:38;;;;;;;8.85;5.65;;;10.40;99.90;;;;;;4954713;29;20036;-50
2022/05/01 00:23:04;;;;;;;6.22;5.63;;;10.40;99.90;;;;;;4939755;29;20031;-47
2022/05/01 00:25:30;;;;;;;8.57;5.28;;;10.30;99.90;;;;;;4939723;29;20027;-48
2022/05/01 00:27:55;;;;;;;7.30;5.18;;;10.30;99.90;;;;;;4939542;29;20024;-48
2022/05/01 00:30:21;;;;;;;7.68;5.88;;;10.20;99.90;;;;;;4939826;29;20024;-47
2022/05/01 00:38:15;;;;;;;6.68;5.18;;;10.10;99.90;;;;;;4939651;29;20564;-50
2022/05/01 00:40:40;;;;;;;6.65;5.50;;;10.10;99.90;;;;;;4939767;29;20107;-52
2022/05/01 00:43:06;;;;;;;6.35;5.10;;;10.10;99.90;;;;;;4954082;29;20027;-51
2022/05/01 00:45:32;;;;;;;5.72;4.93;;;10.00;99.90;;;;;;4939935;29;20087;-48
2022/05/01 00:47:58;;;;;;;42.05;30.65;;;10.00;99.90;;;;;;4939784;29;20027;-49
2022/05/01 00:50:24;;;;;;;36.65;23.27;;;9.90;99.90;;;;;;4938441;29;20480;-52
2022/05/01 00:52:51;;;;;;;30.02;16.33;;;9.90;99.90;;;;;;4939036;29;20095;-46
2022/05/01 00:55:16;;;;;;;12.45;7.22;;;9.90;99.90;;;;;;4939234;29;20389;-51
2022/05/01 00:57:47;;;;;;;7.93;6.57;;;9.90;99.90;;;;;;4938946;29;20111;-47
2022/05/01 01:00:16;;;;;;;9.43;5.82;;;9.90;99.90;;;;;;4939384;29;20106;-49
2022/05/01 01:02:42;;;;;;;6.18;5.60;;;9.90;99.90;;;;;;4939290;29;20476;-47
2022/05/01 01:05:08;;;;;;;8.07;6.65;;;10.00;99.90;;;;;;4939163;29;20107;-45
2022/05/01 01:07:34;;;;;;;11.57;6.25;;;10.00;99.90;;;;;;4938287;29;20020;-48
2022/05/01 01:10:00;;;;;;;11.65;6.40;;;10.00;99.90;;;;;;4939205;29;20106;-47
2022/05/01 01:15:11;;;;;;;7.63;5.70;;;9.90;99.90;;;;;;4939760;29;20027;-46
2022/05/01 01:17:41;;;;;;;10.82;6.35;;;9.90;99.90;;;;;;4939258;29;20020;-46
2022/05/01 01:20:15;;;;;;;9.40;6.22;;;9.90;99.90;;;;;;4954416;29;20031;-45
2022/05/01 01:22:44;;;;;;;8.18;6.32;;;9.90;99.90;;;;;;4939610;29;20110;-48
2022/05/01 01:25:10;;;;;;;11.20;7.03;;;9.90;99.90;;;;;;4939469;29;20383;-47
2022/05/01 01:27:37;;;;;;;13.77;5.88;;;9.90;99.90;;;;;;4953911;29;20043;-51
2022/05/01 01:32:49;;;;;;;13.93;7.07;;;9.80;99.90;;;;;;4939637;29;20091;-48
2022/05/01 01:35:17;;;;;;;8.38;6.55;;;9.70;99.90;;;;;;4938827;29;20137;-50
2022/05/01 01:37:47;;;;;;;7.32;6.00;;;9.70;99.90;;;;;;4938789;29;20023;-49
2022/05/01 01:40:20;;;;;;;7.50;6.63;;;9.70;99.90;;;;;;4938588;29;20086;-49
2022/05/01 01:42:48;;;;;;;11.02;6.53;;;9.70;99.90;;;;;;4953175;29;20118;-48
2022/05/01 01:45:14;;;;;;;9.48;6.80;;;9.70;99.90;;;;;;4938727;29;20024;-46
2022/05/01 01:47:40;;;;;;;9.07;6.43;;;9.70;99.90;;;;;;4938467;29;20039;-49
2022/05/01 01:50:05;;;;;;;13.63;7.70;;;9.60;99.90;;;;;;4939072;29;20122;-48
2022/05/01 01:52:33;;;;;;;10.93;7.30;;;9.60;99.90;;;;;;4938631;29;20028;-47
2022/05/01 01:55:00;;;;;;;11.82;8.30;;;9.60;99.90;;;;;;4953619;29;20024;-49
2022/05/01 01:57:25;;;;;;;14.07;8.45;;;9.60;99.90;;;;;;4938213;29;20492;-47
2022/05/01 01:59:51;;;;;;;7.63;6.72;;;9.70;99.90;;;;;;4938552;29;20036;-46
2022/05/01 02:02:17;;;;;;;9.20;6.80;;;9.60;99.90;;;;;;4953128;29;20533;-48
2022/05/01 02:04:42;;;;;;;11.23;6.93;;;9.60;99.90;;;;;;4938401;29;20031;-47
2022/05/01 02:07:08;;;;;;;8.23;6.53;;;9.70;99.90;;;;;;4937370;29;20063;-47
2022/05/01 02:09:37;;;;;;;9.95;8.00;;;9.70;99.90;;;;;;4952958;29;20030;-47
2022/05/01 02:12:08;;;;;;;11.23;8.02;;;9.70;99.90;;;;;;4937524;29;20031;-48
2022/05/01 02:14:36;;;;;;;11.10;7.07;;;9.70;99.90;;;;;;4951820;29;20026;-47
2022/05/01 02:17:04;;;;;;;8.75;6.97;;;9.70;99.90;;;;;;4952360;29;20028;-47
2022/05/01 02:19:30;;;;;;;11.07;7.10;;;9.80;99.90;;;;;;4936988;29;20086;-47
2022/05/01 02:21:55;;;;;;;6.80;6.18;;;9.80;99.90;;;;;;4937467;29;20035;-48
2022/05/01 02:24:23;;;;;;;8.55;6.53;;;9.80;99.90;;;;;;4937200;29;20442;-50
2022/05/01 02:26:49;;;;;;;7.95;7.15;;;9.80;99.90;;;;;;4937410;29;20106;-47
2022/05/01 02:29:14;;;;;;;7.93;6.55;;;9.90;99.90;;;;;;4952471;29;20102;-49
2022/05/01 02:31:42;;;;;;;7.63;5.38;;;9.90;99.90;;;;;;4937666;29;20554;-53
2022/05/01 02:34:08;;;;;;;7.93;6.35;;;9.90;99.90;;;;;;4937170;29;20023;-48
2022/05/01 02:36:34;;;;;;;8.10;6.45;;;9.90;99.90;;;;;;4937682;29;20065;-46
2022/05/01 02:39:00;;;;;;;10.63;6.90;;;10.00;99.90;;;;;;4952188;29;20031;-48
2022/05/01 02:41:26;;;;;;;11.65;5.93;;;9.90;99.90;;;;;;4937583;29;20510;-51
2022/05/01 02:43:51;;;;;;;10.63;6.10;;;10.00;99.90;;;;;;4951876;29;20039;-49
2022/05/01 02:46:17;;;;;;;10.15;6.63;;;10.00;99.90;;;;;;4937217;29;20547;-49
2022/05/01 02:48:44;;;;;;;6.60;5.93;;;9.90;99.90;;;;;;4937244;29;20028;-45
2022/05/01 02:51:10;;;;;;;8.68;6.70;;;9.90;99.90;;;;;;4952246;29;20028;-48
2022/05/01 02:53:36;;;;;;;7.53;5.95;;;9.90;99.90;;;;;;4951435;29;20407;-48
2022/05/01 02:56:02;;;;;;;7.68;6.22;;;9.90;99.90;;;;;;4937469;29;20055;-50
2022/05/01 02:58:28;;;;;;;9.85;6.55;;;9.90;99.90;;;;;;4951531;29;20119;-49
2022/05/01 03:00:55;;;;;;;7.80;6.50;;;9.90;99.90;;;;;;4937134;29;20023;-50
2022/05/01 03:03:20;;;;;;;10.43;6.65;;;9.90;99.90;;;;;;4937066;29;20031;-51
2022/05/01 03:05:46;;;;;;;8.77;6.53;;;9.80;99.90;;;;;;4937675;29;20027;-47
2022/05/01 03:08:12;;;;;;;9.55;6.57;;;9.80;99.90;;;;;;4951098;29;20024;-48
2022/05/01 03:10:38;;;;;;;10.88;6.88;;;9.70;99.90;;;;;;4936820;29;20024;-50
2022/05/01 03:13:04;;;;;;;9.90;7.13;;;9.80;99.90;;;;;;4936368;29;20613;-50
2022/05/01 03:15:29;;;;;;;12.38;7.20;;;9.80;99.90;;;;;;4936527;29;20023;-48
2022/05/01 03:23:23;;;;;;;10.43;6.55;;;9.80;99.90;;;;;;4936693;29;20074;-50
2022/05/01 03:25:49;;;;;;;9.98;6.53;;;9.80;99.90;;;;;;4936460;29;20067;-47
2022/05/01 03:28:15;;;;;;;9.20;6.55;;;9.80;99.90;;;;;;4936766;29;20111;-50
2022/05/01 03:30:40;;;;;;;8.15;6.38;;;9.90;99.90;;;;;;4938325;29;20540;-51
2022/05/01 03:33:07;;;;;;;10.25;6.70;;;9.90;99.90;;;;;;4940545;29;20039;-50
2022/05/01 03:35:35;;;;;;;11.07;6.78;;;9.90;99.90;;;;;;4940044;29;20054;-46
2022/05/01 03:38:02;;;;;;;7.78;6.82;;;9.90;99.90;;;;;;4939898;29;20034;-48
2022/05/01 03:40:27;;;;;;;8.13;6.63;;;9.80;99.90;;;;;;4940205;29;20039;-48
2022/05/01 03:42:54;;;;;;;11.23;6.35;;;9.80;99.90;;;;;;4941215;29;20039;-47
2022/05/01 03:45:19;;;;;;;13.07;7.20;;;9.80;99.90;;;;;;4941396;29;20019;-49
2022/05/01 03:47:46;;;;;;;8.65;6.57;;;9.70;99.90;;;;;;4940516;29;20064;-47
2022/05/01 03:50:11;;;;;;;11.45;7.65;;;9.70;99.90;;;;;;4940664;29;20043;-47
2022/05/01 03:52:38;;;;;;;11.18;6.93;;;9.70;99.90;;;;;;4940693;29;20023;-48
2022/05/01 03:55:04;;;;;;;10.55;6.70;;;9.70;99.90;;;;;;4940483;29;20024;-49
2022/05/01 03:57:32;;;;;;;7.30;6.68;;;9.60;99.90;;;;;;4940530;29;20032;-52
2022/05/01 03:59:58;;;;;;;12.50;6.28;;;9.60;99.90;;;;;;4940329;29;20028;-49
2022/05/01 04:02:23;;;;;;;11.48;7.15;;;9.60;99.90;;;;;;4940518;29;20042;-47
2022/05/01 04:04:49;;;;;;;9.07;6.22;;;9.60;99.90;;;;;;4940476;29;20032;-47
2022/05/01 04:07:15;;;;;;;7.38;6.35;;;9.60;99.90;;;;;;4939961;29;20032;-49
2022/05/01 04:09:41;;;;;;;8.20;6.25;;;9.60;99.90;;;;;;4940221;29;20076;-48
2022/05/01 04:12:06;;;;;;;7.50;6.15;;;9.60;99.90;;;;;;4940821;29;20020;-48
2022/05/01 04:14:32;;;;;;;14.60;7.35;;;9.60;99.90;;;;;;4940732;29;20023;-46
2022/05/01 04:16:59;;;;;;;9.30;6.18;;;9.60;99.90;;;;;;4940569;29;20027;-49
2022/05/01 04:19:25;;;;;;;11.73;6.53;;;9.60;99.90;;;;;;4954841;29;20110;-47
2022/05/01 04:21:51;;;;;;;7.45;6.63;;;9.60;99.90;;;;;;4940677;29;20032;-48
2022/05/01 04:24:16;;;;;;;6.93;6.30;;;9.60;99.90;;;;;;4940291;29;20094;-46
2022/05/01 04:26:42;;;;;;;12.10;6.78;;;9.70;99.90;;;;;;4940461;29;20055;-49
2022/05/01 04:31:51;;;;;;;7.63;6.88;;;9.70;99.90;;;;;;4939388;29;20091;-48
2022/05/01 04:34:17;;;;;;;11.15;7.35;;;9.80;99.90;;;;;;4939429;29;20040;-47
2022/05/01 04:36:43;;;;;;;13.60;7.15;;;9.80;99.90;;;;;;4954274;29;20047;-48
2022/05/01 04:39:09;;;;;;;10.52;7.07;;;9.80;99.90;;;;;;4939079;29;20040;-47
2022/05/01 04:41:34;;;;;;;7.95;6.60;;;9.80;99.90;;;;;;4939521;29;20043;-46
2022/05/01 04:44:00;;;;;;;12.88;7.00;;;9.70;99.90;;;;;;4939262;29;20103;-45
2022/05/01 04:46:26;;;;;;;11.13;6.88;;;9.70;99.90;;;;;;4939744;29;20452;-50
2022/05/01 04:48:52;;;;;;;12.45;6.57;;;9.70;99.90;;;;;;4938953;29;20063;-48
2022/05/01 04:51:17;;;;;;;18.70;8.20;;;9.60;99.90;;;;;;4939811;29;20034;-51
2022/05/01 04:53:43;;;;;;;12.93;7.22;;;9.60;99.90;;;;;;4939153;29;20059;-48
2022/05/01 04:58:52;;;;;;;8.65;5.97;;;9.60;99.90;;;;;;4939090;29;20123;-47
2022/05/01 05:01:19;;;;;;;8.07;6.78;;;9.70;99.90;;;;;;4938933;29;20107;-49
2022/05/01 05:03:45;;;;;;;7.43;6.63;;;9.70;99.90;;;;;;4939124;29;20036;-49
2022/05/01 05:06:10;;;;;;;8.90;7.28;;;9.70;99.90;;;;;;4939103;29;20030;-49
2022/05/01 05:11:20;;;;;;;8.32;6.35;;;9.80;99.90;;;;;;4939331;29;20043;-48
2022/05/01 05:13:45;;;;;;;10.48;7.38;;;9.80;99.90;;;;;;4939826;29;20388;-49
2022/05/01 05:16:14;;;;;;;7.80;6.40;;;9.90;99.90;;;;;;4939037;29;20057;-47
2022/05/01 05:18:40;;;;;;;10.07;6.10;;;10.00;99.90;;;;;;4939282;29;20032;-47
2022/05/01 05:21:06;;;;;;;28.60;19.23;;;10.00;99.90;;;;;;4939488;29;20024;-46
2022/05/01 05:23:32;;;;;;;15.95;10.00;;;10.10;99.90;;;;;;4937183;29;20035;-46
2022/05/01 05:25:58;;;;;;;13.98;8.00;;;10.10;99.90;;;;;;4929974;29;20038;-50
2022/05/01 05:28:23;;;;;;;9.32;6.97;;;10.10;99.90;;;;;;4936120;29;20115;-47
2022/05/01 05:30:49;;;;;;;13.85;6.30;;;10.10;99.90;;;;;;4936311;29;20051;-49
2022/05/01 05:33:15;;;;;;;8.60;6.18;;;10.10;99.90;;;;;;4931285;29;20126;-46
2022/05/01 05:35:41;;;;;;;8.80;5.50;;;10.20;99.90;;;;;;4938632;29;20568;-46
2022/05/01 05:38:07;;;;;;;7.47;5.47;;;10.20;99.90;;;;;;4936831;29;20023;-49
2022/05/01 05:40:32;;;;;;;11.20;7.55;;;10.20;99.90;;;;;;4919742;29;20028;-52
2022/05/01 05:42:58;;;;;;;6.97;6.35;;;10.20;99.90;;;;;;4936063;29;20032;-48
2022/05/01 05:45:24;;;;;;;10.95;6.65;;;10.10;99.90;;;;;;4907024;23;20076;-46
2022/05/01 05:47:50;;;;;;;11.07;7.43;;;10.20;99.90;;;;;;4872745;29;20061;-45
2022/05/01 05:50:15;;;;;;;8.45;6.82;;;10.10;99.90;;;;;;4857404;29;20489;-48
2022/05/01 05:52:41;;;;;;;9.57;6.53;;;10.10;99.90;;;;;;4870773;29;20083;-39
2022/05/01 05:55:07;;;;;;;9.20;7.15;;;10.20;99.90;;;;;;4885777;29;20023;-49
2022/05/01 05:57:33;;;;;;;9.10;6.53;;;10.20;99.90;;;;;;4954402;28;20040;-50
2022/05/01 05:59:58;;;;;;;9.25;6.60;;;10.30;99.90;;;;;;4869536;28;20421;-42
2022/05/01 06:02:24;;;;;;;9.82;6.45;;;10.30;99.90;;;;;;4856753;29;20037;-46
2022/05/01 06:04:49;;;;;;;9.30;6.50;;;10.30;99.90;;;;;;4857587;29;20029;-42
2022/05/01 06:07:15;;;;;;;10.02;7.50;;;10.40;99.90;;;;;;4855930;29;20116;-46
2022/05/01 06:09:41;;;;;;;9.05;7.97;;;10.30;99.90;;;;;;4857802;29;20029;-45
2022/05/01 06:12:09;;;;;;;12.07;8.23;;;10.40;99.90;;;;;;4857854;29;20044;-45
2022/05/01 06:14:35;;;;;;;12.98;7.15;;;10.40;99.90;;;;;;4857417;29;20028;-46
2022/05/01 06:17:00;;;;;;;8.43;7.50;;;10.50;99.90;;;;;;4857194;29;20038;-45
2022/05/01 06:19:26;;;;;;;10.55;7.80;;;10.40;99.90;;;;;;4857482;29;20374;-47
2022/05/01 06:21:51;;;;;;;10.18;7.88;;;10.50;99.90;;;;;;4856501;29;20378;-50
2022/05/01 06:24:17;;;;;;;12.48;7.75;;;10.50;99.90;;;;;;4857775;29;20061;-45
2022/05/01 06:26:42;;;;;;;12.82;7.30;;;10.50;99.90;;;;;;4857231;29;20397;-43
2022/05/01 06:29:08;;;;;;;11.02;7.70;;;10.70;99.90;;;;;;4855889;29;20454;-46
2022/05/01 06:31:37;;;;;;;12.00;8.18;;;10.60;99.90;;;;;;4871376;29;20121;-47
2022/05/01 06:34:03;;;;;;;13.88;7.68;;;10.60;99.90;;;;;;4857350;29;20036;-48
2022/05/01 06:36:29;;;;;;;9.77;7.03;;;10.60;99.90;;;;;;4856903;29;20030;-45
2022/05/01 06:38:55;;;;;;;10.88;8.02;;;10.60;99.90;;;;;;4855963;29;20029;-46
2022/05/01 06:41:21;;;;;;;11.43;7.97;;;10.70;99.90;;;;;;4857203;29;20489;-47
2022/05/01 06:43:46;;;;;;;11.23;7.53;;;10.80;99.90;;;;;;4856977;29;20473;-49
2022/05/01 06:46:13;;;;;;;10.60;7.60;;;10.80;99.90;;;;;;4856806;29;20026;-46
2022/05/01 06:48:38;;;;;;;9.55;7.38;;;10.90;99.90;;;;;;4856903;29;20033;-47
2022/05/01 06:51:04;;;;;;;9.80;7.25;;;10.90;99.90;;;;;;4856923;29;20028;-44
2022/05/01 06:53:29;;;;;;;7.22;6.60;;;11.00;99.90;;;;;;4856885;29;20022;-42
2022/05/01 06:55:56;;;;;;;9.68;7.30;;;11.10;99.90;;;;;;4856874;29;20045;-52
2022/05/01 06:58:22;;;;;;;9.82;6.82;;;11.20;99.90;;;;;;4856571;29;20037;-41
2022/05/01 07:00:49;;;;;;;11.38;8.07;;;11.20;99.90;;;;;;4856883;29;20482;-47
2022/05/01 07:03:14;;;;;;;9.85;7.03;;;11.30;99.90;;;;;;4856825;29;20032;-50
2022/05/01 07:05:40;;;;;;;8.45;6.40;;;11.40;99.90;;;;;;4856144;29;20033;-47
2022/05/01 07:08:05;;;;;;;11.35;7.30;;;11.30;99.90;;;;;;4856370;29;20104;-45
2022/05/01 07:10:31;;;;;;;10.55;6.97;;;11.40;99.90;;;;;;4856639;29;20500;-42
2022/05/01 07:12:56;;;;;;;8.75;6.57;;;11.60;99.90;;;;;;4870921;28;20489;-46
2022/05/01 07:15:22;;;;;;;14.38;7.68;;;11.80;99.90;;;;;;4855336;29;20029;-48
2022/05/01 07:17:48;;;;;;;10.90;7.32;;;11.70;99.90;;;;;;4856156;29;20026;-45
2022/05/01 07:20:13;;;;;;;9.85;6.82;;;11.70;99.90;;;;;;4856727;29;20022;-47
2022/05/01 07:22:39;;;;;;;7.80;6.40;;;11.60;99.90;;;;;;4855176;29;20076;-50
2022/05/01 07:25:05;;;;;;;10.27;6.75;;;11.50;99.90;;;;;;4856729;29;20081;-51
2022/05/01 07:27:31;;;;;;;13.68;7.20;;;11.60;99.90;;;;;;4856000;29;20545;-48
2022/05/01 07:29:56;;;;;;;9.00;6.97;;;11.60;99.90;;;;;;4856528;29;20042;-46
2022/05/01 07:32:22;;;;;;;11.35;6.80;;;11.80;99.90;;;;;;4856416;29;20486;-44
2022/05/01 07:34:47;;;;;;;12.77;7.07;;;11.80;99.90;;;;;;4856336;29;20041;-49
2022/05/01 07:37:16;;;;;;;9.02;6.97;;;11.70;99.90;;;;;;4856335;29;20040;-55
2022/05/01 07:39:42;;;;;;;7.00;6.28;;;11.70;99.90;;;;;;4856805;29;20164;-47
2022/05/01 07:42:08;;;;;;;11.18;7.63;;;11.90;99.90;;;;;;4856246;29;20554;-46
2022/05/01 07:44:34;;;;;;;12.60;6.60;;;11.90;99.90;;;;;;4855889;29;20037;-40
2022/05/01 07:46:59;;;;;;;12.23;7.55;;;12.00;99.90;;;;;;4870031;29;20044;-46
2022/05/01 07:49:25;;;;;;;9.48;7.00;;;12.00;99.90;;;;;;4856343;29;20402;-45
2022/05/01 07:51:50;;;;;;;13.55;6.70;;;12.10;99.90;;;;;;4856037;29;20034;-45
2022/05/01 07:54:16;;;;;;;12.38;7.93;;;12.00;99.90;;;;;;4856153;29;20111;-47
2022/05/01 07:56:42;;;;;;;9.18;6.82;;;11.90;99.90;;;;;;4855719;29;20044;-45
2022/05/01 07:59:08;;;;;;;8.70;7.00;;;12.10;99.90;;;;;;4855761;29;20089;-45
2022/05/01 08:01:34;;;;;;;11.60;7.47;;;12.00;99.90;;;;;;4854965;29;20037;-41
2022/05/01 08:06:44;;;;;;;18.95;7.38;;;12.20;99.90;;;;;;4870928;29;20088;-45
2022/05/01 08:09:09;;;;;;;10.25;7.60;;;12.00;99.90;;;;;;4857214;29;20437;-48
2022/05/01 08:11:35;;;;;;;11.35;8.25;;;12.30;99.90;;;;;;4855730;29;20033;-50
2022/05/01 08:14:03;;;;;;;11.13;7.43;;;12.50;99.90;;;;;;4856100;29;20057;-45
2022/05/01 08:16:28;;;;;;;10.40;7.35;;;12.80;99.90;;;;;;4855918;29;20045;-44
2022/05/01 08:21:38;;;;;;;16.15;8.02;;;13.40;99.90;;;;;;4846204;29;20085;-45
2022/05/01 08:24:04;;;;;;;8.60;6.65;;;13.90;99.90;;;;;;4910849;29;20425;-44
2022/05/01 08:26:34;;;;;;;10.52;6.60;;;14.40;99.90;;;;;;4874970;29;20041;-43
2022/05/01 08:29:00;;;;;;;68.90;44.88;;;14.70;99.90;;;;;;4873160;29;20118;-40
2022/05/01 08:31:26;;;;;;;31.40;18.10;;;14.90;99.90;;;;;;4878142;29;20025;-43
2022/05/01 08:33:54;;;;;;;8.70;7.10;;;15.20;99.90;;;;;;4877456;29;20108;-46
2022/05/01 08:36:20;;;;;;;11.38;6.85;;;15.20;99.90;;;;;;4877599;29;20080;-46
2022/05/01 08:38:45;;;;;;;12.30;7.45;;;15.20;99.70;;;;;;4877117;29;20033;-44
2022/05/01 08:41:11;;;;;;;11.65;6.35;;;15.30;99.20;;;;;;4862666;29;20034;-45
2022/05/01 08:43:38;;;;;;;8.27;6.57;;;16.00;98.60;;;;;;4858494;29;20033;-45
2022/05/01 08:46:22;;;;;;;10.60;7.50;;;16.40;98.00;;;;;;4857107;29;20390;-40
2022/05/01 08:49:03;;;;;;;11.10;6.85;;;16.30;97.60;;;;;;4858494;29;20553;-39
2022/05/01 08:51:40;;;;;;;7.65;6.63;;;16.40;97.90;;;;;;4858236;29;20041;-45
2022/05/01 08:54:13;;;;;;;11.02;6.88;;;16.50;97.70;;;;;;4858967;29;20096;-41
2022/05/01 08:56:41;;;;;;;9.80;6.03;;;16.90;97.40;;;;;;4858262;29;20112;-45
2022/05/01 08:59:09;;;;;;;11.00;6.35;;;17.20;96.90;;;;;;4858432;29;20025;-45
2022/05/01 09:01:36;;;;;;;11.60;6.38;;;17.10;97.00;;;;;;4858386;29;20049;-42
2022/05/01 09:04:06;;;;;;;7.20;6.25;;;17.00;97.20;;;;;;4858475;29;20491;-46
2022/05/01 09:06:36;;;;;;;11.65;6.00;;;17.40;96.80;;;;;;4858576;29;20053;-45
2022/05/01 09:09:10;;;;;;;14.98;6.30;;;17.50;96.30;;;;;;4873637;29;20076;-45
2022/05/01 09:14:22;;;;;;;13.27;5.88;;;18.00;96.00;;;;;;4859244;29;20576;-44
2022/05/01 09:17:14;;;;;;;8.90;6.03;;;18.50;95.80;;;;;;4865757;29;20041;-40
2022/05/01 09:19:45;;;;;;;6.97;5.20;;;18.80;95.60;;;;;;4858513;29;20355;-41
2022/05/01 09:22:12;;;;;;;12.43;5.85;;;18.70;95.10;;;;;;4858443;29;20504;-44
2022/05/01 09:24:38;;;;;;;10.48;6.18;;;19.00;95.60;;;;;;4859205;29;20112;-45
2022/05/01 09:27:04;;;;;;;10.10;6.05;;;18.90;94.70;;;;;;4858750;29;20033;-47
2022/05/01 09:29:34;;;;;;;7.90;5.88;;;18.60;94.20;;;;;;4858567;29;20026;-44
2022/05/01 09:32:03;;;;;;;6.10;5.07;;;18.40;94.50;;;;;;4858495;29;20101;-40
2022/05/01 09:34:31;;;;;;;7.53;5.63;;;18.40;94.80;;;;;;4858280;29;20076;-47
2022/05/01 09:36:58;;;;;;;10.77;5.60;;;18.50;94.10;;;;;;4858071;29;20105;-47
2022/05/01 09:39:28;;;;;;;12.13;6.70;;;18.20;94.80;;;;;;4858032;29;20030;-49
2022/05/01 09:41:55;;;;;;;7.65;6.10;;;18.20;94.80;;;;;;4857745;29;20064;-46
2022/05/01 09:44:22;;;;;;;9.50;6.57;;;18.30;94.80;;;;;;4857708;29;20041;-40
2022/05/01 09:46:52;;;;;;;12.13;7.10;;;18.40;94.60;;;;;;4857709;29;20037;-42
2022/05/01 09:49:18;;;;;;;8.25;6.00;;;18.70;94.60;;;;;;4858562;29;20029;-44
2022/05/01 09:51:56;;;;;;;8.40;6.57;;;18.70;94.60;;;;;;4859039;29;20034;-45
2022/05/01 09:54:24;;;;;;;9.95;7.10;;;18.50;94.60;;;;;;4857495;29;20494;-43
2022/05/01 09:56:51;;;;;;;6.40;5.80;;;18.20;94.60;;;;;;4858116;29;20530;-42
2022/05/01 09:59:22;;;;;;;9.73;6.47;;;17.80;95.30;;;;;;4858557;29;20490;-43
2022/05/01 10:02:01;;;;;;;11.60;6.57;;;17.50;95.90;;;;;;4859380;29;20045;-44
2022/05/01 10:04:27;;;;;;;15.43;11.10;;;17.30;96.20;;;;;;4858888;29;20461;-45
2022/05/01 10:06:54;;;;;;;9.35;6.80;;;17.50;96.20;;;;;;4858330;29;20128;-44
2022/05/01 10:09:27;;;;;;;8.15;7.35;;;17.40;95.60;;;;;;4857750;29;20039;-37
2022/05/01 10:11:55;;;;;;;11.32;5.97;;;17.30;96.00;;;;;;4857409;29;20412;-43
2022/05/01 10:14:21;;;;;;;9.20;5.93;;;17.50;96.40;;;;;;4857442;29;20048;-47
2022/05/01 10:16:47;;;;;;;15.15;6.88;;;17.80;96.70;;;;;;4857156;29;20041;-49
2022/05/01 10:19:18;;;;;;;12.93;7.35;;;17.80;96.00;;;;;;4857272;29;20030;-46
2022/05/01 10:21:48;;;;;;;8.45;6.15;;;17.80;96.10;;;;;;4857091;29;20037;-42
2022/05/01 10:24:15;;;;;;;6.75;5.45;;;17.70;96.20;;;;;;4857082;29;20041;-44
2022/05/01 10:27:14;;;;;;;7.35;5.80;;;17.50;97.00;;;;;;4857298;29;20506;-46
2022/05/01 10:32:47;;;;;;;11.80;7.32;;;17.20;97.00;;;;;;4853558;29;20049;-49
2022/05/01 10:35:32;;;;;;;13.98;7.00;;;17.40;97.00;;;;;;4886693;29;20540;-45
2022/05/01 10:38:07;;;;;;;9.00;7.25;;;17.40;96.80;;;;;;4856852;29;20100;-49
2022/05/01 10:40:33;;;;;;;13.77;8.80;;;17.30;96.10;;;;;;4856239;29;20390;-41
2022/05/01 10:43:24;;;;;;;8.20;7.40;;;17.40;95.90;;;;;;4856047;29;20048;-46
2022/05/01 10:45:50;;;;;;;10.52;6.68;;;17.30;96.30;;;;;;4855485;29;20539;-47
2022/05/01 10:48:32;;;;;;;9.65;7.60;;;17.20;96.30;;;;;;4856088;29;20093;-45
2022/05/01 10:51:38;;;;;;;10.68;7.78;;;17.20;96.20;;;;;;4856536;29;20109;-47
2022/05/01 10:54:10;;;;;;;;;;;17.10;96.60;;;;;;4856903;29;20135;-50
2022/05/01 10:56:37;;;;;;;11.93;8.00;;;16.90;96.20;;;;;;4853109;29;20380;-47
2022/05/01 10:59:42;;;;;;;10.27;8.02;;;16.80;96.40;;;;;;4855672;29;20511;-48
2022/05/01 11:02:22;;;;;;;11.30;7.05;;;16.60;97.00;;;;;;4856232;29;20085;-44
2022/05/01 11:04:49;;;;;;;11.10;8.10;;;16.60;97.80;;;;;;4856375;29;20108;-40
2022/05/01 11:07:17;;;;;;;11.20;7.90;;;16.60;97.60;;;;;;4856703;29;20039;-49
2022/05/01 11:09:45;;;;;;;7.47;6.72;;;16.60;98.00;;;;;;4857822;29;20026;-48
2022/05/01 11:12:13;;;;;;;7.80;7.00;;;16.60;98.50;;;;;;4862510;29;20025;-48
2022/05/01 11:15:00;;;;;;;8.93;6.55;;;16.70;98.70;;;;;;4870893;29;20026;-46
2022/05/01 11:17:36;;;;;;;10.60;7.50;;;16.60;98.80;;;;;;4856135;29;20780;-44
2022/05/01 11:20:26;;;;;;;8.60;7.63;;;16.70;98.80;;;;;;4866652;29;20092;-47
2022/05/01 11:22:52;;;;;;;7.63;6.88;;;16.70;98.50;;;;;;4857339;29;20065;-45
2022/05/01 11:25:39;;;;;;;14.48;8.40;;;16.70;98.30;;;;;;4856282;29;20069;-43
2022/05/01 11:28:05;;;;;;;10.80;8.10;;;16.70;98.00;;;;;;4855796;29;20125;-43
2022/05/01 11:30:31;;;;;;;10.50;8.68;;;16.70;98.00;;;;;;4855772;29;20034;-47
2022/05/01 11:33:11;;;;;;;12.85;8.13;;;16.70;97.80;;;;;;4868810;29;20045;-46
2022/05/01 11:35:58;;;;;;;10.50;8.00;;;16.60;98.10;;;;;;4855234;29;20106;-48
2022/05/01 11:38:39;;;;;;;14.90;8.95;;;16.60;98.00;;;;;;4855945;29;20054;-45
2022/05/01 11:41:06;;;;;;;14.10;8.75;;;16.60;97.70;;;;;;4855671;29;20121;-49
2022/05/01 11:43:32;;;;;;;11.77;8.02;;;16.70;98.00;;;;;;4855882;29;20053;-50
2022/05/01 11:46:01;;;;;;;10.35;7.80;;;16.70;98.20;;;;;;4855979;29;20109;-48
2022/05/01 11:48:27;;;;;;;13.35;8.48;;;16.80;98.20;;;;;;4910852;23;20055;-43
2022/05/01 11:50:53;;;;;;;11.98;9.43;;;16.80;98.30;;;;;;4852728;29;20061;-44
2022/05/01 11:53:24;;;;;;;11.40;8.63;;;17.00;97.80;;;;;;4858177;29;20074;-46
2022/05/01 12:04:38;;;;;;;9.77;8.00;;;17.10;97.40;;;;;;4859345;29;20049;-49
2022/05/01 12:07:09;;;;;;;12.90;7.93;;;17.20;97.20;;;;;;4853998;29;20860;-49
2022/05/01 12:09:40;;;;;;;9.65;6.78;;;17.20;97.30;;;;;;4858547;29;20037;-45
2022/05/01 12:12:08;;;;;;;12.70;7.97;;;17.30;97.30;;;;;;4856839;29;20437;-44
2022/05/01 12:14:34;;;;;;;12.38;8.23;;;17.20;97.30;;;;;;4858872;29;20401;-45
2022/05/01 12:17:00;;;;;;;13.93;8.57;;;17.30;97.20;;;;;;4857852;29;20037;-45
2022/05/01 12:19:39;;;;;;;14.68;9.00;;;17.30;96.40;;;;;;4857336;29;20494;-58
2022/05/01 12:22:06;;;;;;;54.90;38.72;;;17.20;96.70;;;;;;4858222;29;20030;-46
2022/05/01 12:24:33;;;;;;;161.80;103.90;;;17.20;96.70;;;;;;4859077;29;20505;-46
2022/05/01 12:26:59;;;;;;;16.73;12.05;;;17.20;96.90;;;;;;4857732;29;20045;-51
2022/05/01 12:29:24;;;;;;;16.83;9.10;;;17.20;97.40;;;;;;4914902;29;20034;-44
2022/05/01 12:32:09;;;;;;;12.57;9.43;;;17.00;96.90;;;;;;4934043;29;20024;-48
2022/05/01 12:35:00;;;;;;;12.27;9.18;;;17.10;96.90;;;;;;4934666;29;20059;-46
2022/05/01 12:37:30;;;;;;;11.95;8.13;;;17.20;97.00;;;;;;4936780;29;20109;-46
2022/05/01 12:39:58;;;;;;;10.43;7.88;;;17.20;96.80;;;;;;4861648;29;20025;-47
2022/05/01 12:45:20;;;;;;;11.52;7.75;;;17.50;97.00;;;;;;4858815;29;20044;-46
2022/05/01 12:47:49;;;;;;;12.90;8.95;;;17.60;97.10;;;;;;4858498;29;20029;-46
2022/05/01 12:50:18;;;;;;;8.65;6.82;;;17.80;96.20;;;;;;4873160;28;20057;-52
2022/05/01 12:52:48;;;;;;;9.57;8.45;;;17.90;96.20;;;;;;4859207;29;20030;-48
2022/05/01 12:55:17;;;;;;;13.68;9.20;;;18.00;96.30;;;;;;4858635;29;20029;-49
2022/05/01 12:58:03;;;;;;;13.20;8.93;;;18.00;96.10;;;;;;4858387;28;20030;-48
2022/05/01 13:00:36;;;;;;;14.43;9.60;;;17.90;95.80;;;;;;4858802;29;20048;-46
2022/05/01 13:03:14;;;;;;;10.60;8.80;;;17.90;95.60;;;;;;4858140;29;20522;-46
2022/05/01 13:05:41;;;;;;;16.83;9.45;;;17.70;96.70;;;;;;4858716;29;20041;-47
2022/05/01 13:08:17;;;;;;;9.38;8.40;;;17.60;97.10;;;;;;4858351;29;20026;-46
2022/05/01 13:10:42;;;;;;;9.13;7.43;;;17.60;97.40;;;;;;4858842;29;20085;-45
2022/05/01 13:13:08;;;;;;;13.10;8.45;;;17.70;97.50;;;;;;4858723;29;20490;-46
2022/05/01 13:15:38;;;;;;;11.57;8.85;;;17.90;97.00;;;;;;4858506;29;20026;-45
2022/05/01 13:18:04;;;;;;;13.48;9.60;;;18.00;95.70;;;;;;4858387;29;20087;-46
2022/05/01 13:20:29;;;;;;;13.52;9.95;;;18.00;95.70;;;;;;4858586;29;20113;-47
2022/05/01 13:22:55;;;;;;;11.20;8.00;;;18.00;95.10;;;;;;4858152;28;20065;-46
2022/05/01 13:25:20;;;;;;;12.82;9.18;;;18.00;95.60;;;;;;4858146;29;20022;-47
2022/05/01 13:27:47;;;;;;;9.23;8.15;;;17.90;95.00;;;;;;4857902;29;20030;-46
2022/05/01 13:30:13;;;;;;;12.90;8.90;;;17.80;95.20;;;;;;4858073;29;20104;-47
2022/05/01 13:32:39;;;;;;;16.17;10.35;;;17.80;95.60;;;;;;4858152;29;20160;-46
2022/05/01 13:35:04;;;;;;;14.75;8.68;;;17.80;95.30;;;;;;4858133;29;20032;-49